Time;durP1;ratioP1;P1;durP2;ratioP2;P2;SDS_P1;SDS_P2;PMS_P1;PMS_P2;Temp;Humidity;BMP_temperature;BMP_pressure;BME280_temperature;BME280_humidity;BME280_pressure;Samples;Min_cycle;Max_cycle;Signal;HPM_P1;HPM_P2
2022/05/05 00:02:05;;;;;;;13.60;7.43;;;;;;;13.09;87.42;98995.97;4485145;32;20100;-73
2022/05/05 00:04:33;;;;;;;10.88;7.47;;;;;;;13.00;88.29;99007.38;4485189;31;20126;-73
2022/05/05 00:07:02;;;;;;;11.73;8.18;;;;;;;12.93;88.17;99000.09;4482999;32;20568;-73
2022/05/05 00:09:30;;;;;;;9.60;7.28;;;;;;;12.91;88.29;98996.78;4485112;31;20661;-73
2022/05/05 00:14:43;;;;;;;12.05;7.97;;;;;;;12.96;88.31;98996.34;4484762;31;20101;-73
2022/05/05 00:17:11;;;;;;;9.63;7.15;;;;;;;13.01;87.94;98999.34;4485508;31;20155;-73
2022/05/05 00:19:43;;;;;;;10.82;7.10;;;;;;;12.92;88.84;98997.59;4485095;31;20097;-73
2022/05/05 00:22:11;;;;;;;10.90;7.28;;;;;;;12.89;89.16;99000.53;4484005;32;20187;-74
2022/05/05 00:24:38;;;;;;;13.35;7.55;;;;;;;12.83;89.80;99004.56;4483661;32;20115;-73
2022/05/05 00:27:06;;;;;;;10.38;7.87;;;;;;;12.83;89.92;99004.56;4484926;32;20163;-73
2022/05/05 00:29:34;;;;;;;12.20;6.95;;;;;;;12.79;90.14;98997.94;4485063;31;20085;-73
2022/05/05 00:32:02;;;;;;;9.48;7.00;;;;;;;12.78;90.31;99001.56;4484890;31;20126;-73
2022/05/05 00:34:29;;;;;;;10.30;6.70;;;;;;;12.78;90.08;98999.75;4484934;31;20093;-73
2022/05/05 00:36:56;;;;;;;11.00;7.75;;;;;;;12.72;90.03;98999.50;4484754;32;20096;-73
2022/05/05 00:39:24;;;;;;;11.50;7.80;;;;;;;12.67;90.98;98993.84;4484728;31;20760;-73
2022/05/05 00:41:51;;;;;;;10.52;7.37;;;;;;;12.52;92.16;98985.59;4484815;31;20092;-73
2022/05/05 00:44:18;;;;;;;10.93;7.05;;;;;;;12.57;92.04;98988.63;4484638;31;20105;-73
2022/05/05 00:46:47;;;;;;;10.25;7.22;;;;;;;12.60;91.57;98983.91;4484809;31;20347;-73
2022/05/05 00:49:14;;;;;;;10.98;7.40;;;;;;;12.69;90.75;98984.03;4484771;31;20439;-73
2022/05/05 00:51:42;;;;;;;10.25;7.28;;;;;;;12.64;91.11;98984.44;4484627;31;20568;-73
2022/05/05 00:54:10;;;;;;;10.85;7.75;;;;;;;12.64;91.16;98978.34;4484591;31;20097;-73
2022/05/05 00:56:38;;;;;;;10.15;7.03;;;;;;;12.75;90.72;98981.63;4484919;31;20084;-73
2022/05/05 00:59:05;;;;;;;11.07;8.05;;;;;;;12.72;90.53;98974.03;4484664;32;20093;-73
2022/05/05 01:01:34;;;;;;;10.23;7.07;;;;;;;12.75;90.27;98986.06;4484624;31;20117;-73
2022/05/05 01:04:01;;;;;;;10.23;7.62;;;;;;;12.77;90.23;98984.12;4484466;31;20105;-73
2022/05/05 01:06:30;;;;;;;12.60;7.95;;;;;;;12.76;90.12;98975.41;4484391;32;20127;-73
2022/05/05 01:09:00;;;;;;;9.43;6.93;;;;;;;12.78;89.76;98976.06;4484532;31;20107;-73
2022/05/05 01:11:28;;;;;;;9.43;7.37;;;;;;;12.74;90.34;98984.41;4484305;31;20100;-73
2022/05/05 01:13:56;;;;;;;15.77;7.60;;;;;;;12.70;90.69;98985.66;4484577;31;20115;-73
2022/05/05 01:16:23;;;;;;;9.95;7.12;;;;;;;12.69;90.75;98984.84;4483988;31;20097;-73
2022/05/05 01:18:55;;;;;;;10.15;7.22;;;;;;;12.69;90.54;98984.84;4485320;31;20100;-73
2022/05/05 01:21:23;;;;;;;9.98;7.15;;;;;;;12.69;90.71;98986.66;4486660;31;20092;-73
2022/05/05 01:23:51;;;;;;;14.82;7.25;;;;;;;12.60;91.05;98988.34;4486422;31;20141;-73
2022/05/05 01:29:05;;;;;;;13.40;8.00;;;;;;;12.54;90.31;98987.13;4486212;31;20472;-73
2022/05/05 01:31:32;;;;;;;11.52;7.65;;;;;;;12.55;90.74;98990.56;4486225;31;20511;-73
2022/05/05 01:34:00;;;;;;;10.30;7.35;;;;;;;12.44;91.86;98991.56;4486173;31;20092;-73
2022/05/05 01:36:27;;;;;;;10.32;7.65;;;;;;;12.31;92.39;98988.44;4486256;32;20100;-73
2022/05/05 01:38:54;;;;;;;10.43;7.40;;;;;;;12.26;93.43;98999.34;4486150;31;20351;-73
2022/05/05 01:41:21;;;;;;;12.02;7.75;;;;;;;12.15;94.12;98989.03;4486136;31;20549;-73
2022/05/05 01:43:49;;;;;;;8.98;7.18;;;;;;;12.03;94.80;98998.88;4486062;32;20155;-73
2022/05/05 01:46:16;;;;;;;10.27;7.53;;;;;;;12.06;94.42;98993.31;4485935;31;20560;-73
2022/05/05 01:48:44;;;;;;;11.82;7.90;;;;;;;12.11;94.02;99009.47;4486125;31;20124;-73
2022/05/05 01:51:12;;;;;;;9.73;7.70;;;;;;;12.10;93.40;99018.34;4486075;32;20428;-73
2022/05/05 01:53:39;;;;;;;8.52;6.50;;;;;;;11.87;95.38;99021.25;4485971;31;20689;-73
2022/05/05 01:56:11;;;;;;;14.18;7.75;;;;;;;11.64;97.02;99027.72;4486068;31;20160;-73
2022/05/05 01:58:44;;;;;;;10.57;6.78;;;;;;;11.59;97.57;99038.63;4486082;31;20130;-73
2022/05/05 02:01:12;;;;;;;9.73;6.72;;;;;;;11.66;96.85;99052.06;4486050;31;20464;-73
2022/05/05 02:03:40;;;;;;;10.63;7.18;;;;;;;11.58;97.06;99052.72;4485990;31;20092;-73
2022/05/05 02:06:07;;;;;;;12.25;7.35;;;;;;;11.59;96.85;99056.19;4485760;31;20138;-73
2022/05/05 02:08:36;;;;;;;13.55;8.40;;;;;;;11.59;97.07;99050.94;4485812;32;20476;-73
2022/05/05 02:11:03;;;;;;;12.20;7.78;;;;;;;11.50;97.53;99056.00;4486095;32;20104;-73
2022/05/05 02:13:31;;;;;;;12.80;7.78;;;;;;;11.44;97.89;99053.94;4485912;31;20081;-73
2022/05/05 02:15:58;;;;;;;13.98;8.07;;;;;;;11.38;98.08;99062.34;4485659;31;20080;-73
2022/05/05 02:18:27;;;;;;;11.70;8.38;;;;;;;11.35;98.61;99052.97;4485938;31;20085;-73
2022/05/05 02:20:54;;;;;;;13.80;7.95;;;;;;;11.32;99.26;99060.28;4485774;31;20096;-73
2022/05/05 02:23:22;;;;;;;10.30;7.57;;;;;;;11.32;99.43;99055.03;4485846;31;20101;-73
2022/05/05 02:25:50;;;;;;;11.98;8.10;;;;;;;11.33;99.50;99064.56;4485811;32;20107;-73
2022/05/05 02:28:17;;;;;;;12.48;8.52;;;;;;;11.27;100.00;99057.22;4485748;31;20096;-73
2022/05/05 02:30:44;;;;;;;12.10;7.50;;;;;;;11.28;100.00;99059.72;4485195;32;20095;-73
2022/05/05 02:33:11;;;;;;;12.20;7.57;;;;;;;11.35;99.66;99052.12;4485733;31;20136;-73
2022/05/05 02:35:38;;;;;;;11.23;7.62;;;;;;;11.39;98.67;99050.91;4485876;31;20105;-73
2022/05/05 02:40:51;;;;;;;10.82;7.03;;;;;;;11.50;96.63;99048.16;4485755;31;20155;-73
2022/05/05 02:43:18;;;;;;;9.88;6.37;;;;;;;11.59;95.71;99048.31;4485635;31;20114;-73
2022/05/05 02:45:45;;;;;;;9.77;6.97;;;;;;;11.59;95.57;99045.69;4485490;31;20084;-73
2022/05/05 02:48:13;;;;;;;10.85;7.40;;;;;;;11.54;95.68;99053.97;4485688;31;20164;-73
2022/05/05 02:50:40;;;;;;;12.50;6.65;;;;;;;11.53;96.25;99044.44;4485622;32;20704;-73
2022/05/05 02:55:54;;;;;;;10.18;7.37;;;;;;;11.47;97.39;99035.31;4484487;32;20093;-73
2022/05/05 02:58:21;;;;;;;9.85;7.05;;;;;;;11.51;97.94;99044.56;4485619;31;20151;-73
2022/05/05 03:00:48;;;;;;;15.25;8.40;;;;;;;11.54;97.76;99044.28;4485574;31;20165;-73
2022/05/05 03:03:16;;;;;;;12.98;8.20;;;;;;;11.53;97.90;99042.63;4485534;31;20623;-73
2022/05/05 03:05:43;;;;;;;12.00;7.40;;;;;;;11.54;97.70;99043.47;4485336;31;20093;-73
2022/05/05 03:08:10;;;;;;;10.40;6.75;;;;;;;11.55;97.56;99042.50;4485451;32;20140;-73
2022/05/05 03:10:38;;;;;;;11.32;7.68;;;;;;;11.64;96.94;99043.47;4485609;31;20153;-73
2022/05/05 03:13:05;;;;;;;13.50;7.78;;;;;;;11.67;96.57;99046.66;4485330;31;20108;-73
2022/05/05 03:15:32;;;;;;;10.70;7.68;;;;;;;11.69;96.66;99036.03;4485204;31;20100;-73
2022/05/05 03:18:00;;;;;;;11.93;7.40;;;;;;;11.72;96.26;99035.75;4485392;32;20084;-73
2022/05/05 03:20:27;;;;;;;12.45;7.05;;;;;;;11.77;95.69;99046.66;4485607;31;20091;-73
2022/05/05 03:22:55;;;;;;;11.55;6.57;;;;;;;11.84;95.03;99041.66;4485369;31;20096;-73
2022/05/05 03:25:22;;;;;;;11.18;7.10;;;;;;;11.87;93.65;99038.81;4485324;31;20096;-73
2022/05/05 03:27:49;;;;;;;10.43;6.60;;;;;;;11.88;93.58;99036.03;4485556;31;20122;-73
2022/05/05 03:30:16;;;;;;;12.88;6.72;;;;;;;11.91;92.90;99040.16;4485727;31;20777;-73
2022/05/05 03:32:44;;;;;;;8.52;5.60;;;;;;;11.98;92.79;99036.03;4485309;31;20127;-73
2022/05/05 03:35:11;;;;;;;8.07;5.68;;;;;;;12.00;91.54;99034.09;4485409;32;20458;-73
2022/05/05 03:37:38;;;;;;;7.45;5.75;;;;;;;12.05;90.81;99039.78;4485207;31;20143;-73
2022/05/05 03:40:06;;;;;;;9.55;5.43;;;;;;;12.12;90.07;99036.59;4485404;32;20262;-73
2022/05/05 03:42:33;;;;;;;10.13;6.28;;;;;;;12.17;89.96;99035.22;4484195;31;20084;-73
2022/05/05 03:45:00;;;;;;;9.68;6.22;;;;;;;12.24;89.27;99028.41;4484951;31;20454;-73
2022/05/05 03:47:28;;;;;;;9.70;6.50;;;;;;;12.27;89.84;99024.66;4485405;31;20506;-73
2022/05/05 03:49:55;;;;;;;8.65;6.28;;;;;;;12.31;89.69;99038.34;4485250;31;20088;-73
2022/05/05 03:52:23;;;;;;;8.60;5.75;;;;;;;12.34;89.47;99036.28;4485243;31;20080;-73
2022/05/05 03:54:50;;;;;;;10.38;7.32;;;;;;;12.33;88.16;99039.03;4485543;31;20464;-73
2022/05/05 03:57:17;;;;;;;11.07;6.55;;;;;;;12.37;87.92;99041.25;4485251;31;20497;-73
2022/05/05 03:59:44;;;;;;;10.35;6.03;;;;;;;12.50;87.90;99040.09;4485289;31;20121;-73
2022/05/05 04:02:11;;;;;;;11.40;5.85;;;;;;;12.47;86.81;99035.94;4485292;31;20118;-73
2022/05/05 04:04:39;;;;;;;9.30;5.65;;;;;;;12.51;85.73;99042.59;4485051;32;20151;-73
2022/05/05 04:07:06;;;;;;;8.13;4.95;;;;;;;12.72;84.53;99045.00;4484029;32;20116;-73
2022/05/05 04:09:33;;;;;;;10.60;4.95;;;;;;;12.75;83.63;99047.34;4484887;31;20153;-73
2022/05/05 04:12:00;;;;;;;9.75;5.40;;;;;;;12.89;82.72;99043.41;4485159;32;20100;-73
2022/05/05 04:14:27;;;;;;;11.40;5.32;;;;;;;12.94;82.21;99038.56;4484840;31;20118;-73
2022/05/05 04:16:55;;;;;;;8.27;4.82;;;;;;;12.92;82.40;99039.69;4485178;31;20175;-73
2022/05/05 04:19:22;;;;;;;11.98;5.95;;;;;;;12.99;82.85;99040.75;4485254;31;20084;-73
2022/05/05 04:21:49;;;;;;;10.68;5.70;;;;;;;13.09;81.45;99046.78;4483300;31;20114;-73
2022/05/05 04:24:16;;;;;;;18.65;7.80;;;;;;;13.05;82.47;99052.47;4482416;32;20096;-73
2022/05/05 04:26:45;;;;;;;10.50;5.55;;;;;;;13.02;82.86;99050.97;4484496;31;20138;-73
2022/05/05 04:29:13;;;;;;;9.38;5.15;;;;;;;13.08;83.17;99049.56;4484815;31;20146;-73
2022/05/05 04:31:40;;;;;;;7.70;5.53;;;;;;;13.11;83.64;99060.62;4483909;31;20100;-73
2022/05/05 04:34:08;;;;;;;6.60;5.35;;;;;;;13.13;84.42;99060.47;4483872;32;20147;-73
2022/05/05 04:36:36;;;;;;;7.10;5.60;;;;;;;13.17;84.44;99055.75;4483565;31;20439;-73
2022/05/05 04:39:04;;;;;;;9.63;6.45;;;;;;;13.22;84.84;99058.78;4482220;31;20130;-73
2022/05/05 04:41:31;;;;;;;9.35;5.62;;;;;;;13.26;85.21;99057.50;4482489;31;20156;-73
2022/05/05 04:43:58;;;;;;;10.25;6.10;;;;;;;13.30;84.92;99058.84;4483192;31;20127;-73
2022/05/05 04:46:25;;;;;;;10.07;5.78;;;;;;;13.28;85.87;99061.63;4483571;31;20100;-73
2022/05/05 04:48:53;;;;;;;7.57;5.78;;;;;;;13.28;86.06;99058.19;4484076;32;20629;-73
2022/05/05 04:51:20;;;;;;;9.00;5.78;;;;;;;13.31;86.56;99058.72;4483739;31;20084;-73
2022/05/05 04:53:47;;;;;;;10.93;6.60;;;;;;;13.34;87.19;99059.41;4482420;31;20126;-73
2022/05/05 04:56:15;;;;;;;10.80;6.50;;;;;;;13.31;88.14;99060.53;4480831;32;20558;-72
2022/05/05 04:58:42;;;;;;;11.70;6.45;;;;;;;13.41;88.36;99065.75;4477832;31;20568;-72
2022/05/05 05:01:09;;;;;;;10.52;6.43;;;;;;;13.53;87.50;99059.28;4478086;32;20100;-72
2022/05/05 05:03:36;;;;;;;18.70;7.57;;;;;;;13.60;87.54;99062.19;4479177;31;20114;-73
2022/05/05 05:06:06;;;;;;;11.38;7.60;;;;;;;13.66;87.03;99056.31;4482165;32;20100;-73
2022/05/05 05:08:34;;;;;;;15.10;8.20;;;;;;;13.76;86.07;99064.13;4474140;31;20103;-73
2022/05/05 05:11:02;;;;;;;17.17;9.18;;;;;;;13.95;85.83;99057.88;4480305;32;20168;-73
2022/05/05 05:13:29;;;;;;;12.27;8.55;;;;;;;14.17;84.86;99067.09;4482599;32;20528;-73
2022/05/05 05:15:56;;;;;;;12.07;7.55;;;;;;;14.23;84.17;99065.66;4483605;31;20101;-73
2022/05/05 05:18:23;;;;;;;12.02;7.55;;;;;;;14.22;82.86;99064.84;4477140;32;20549;-73
2022/05/05 05:20:52;;;;;;;12.95;7.55;;;;;;;14.21;84.40;99063.19;4481325;32;20802;-73
2022/05/05 05:23:20;;;;;;;10.48;6.57;;;;;;;14.32;83.94;99067.38;4475720;31;20457;-72
2022/05/05 05:25:47;;;;;;;8.63;7.07;;;;;;;14.33;83.60;99067.22;4476017;32;20159;-73
2022/05/05 05:28:14;;;;;;;10.65;7.12;;;;;;;14.37;83.69;99063.31;4475923;32;20148;-72
2022/05/05 05:30:41;;;;;;;12.25;7.05;;;;;;;14.35;83.97;99067.91;4483942;31;20115;-74
2022/05/05 05:33:09;;;;;;;12.65;7.70;;;;;;;14.25;83.97;99069.00;4477657;31;20093;-73
2022/05/05 05:35:36;;;;;;;13.62;7.35;;;;;;;14.11;85.93;99067.72;4479849;32;20096;-73
2022/05/05 05:38:04;;;;;;;13.73;8.13;;;;;;;14.20;85.99;99072.91;4482562;31;20808;-74
2022/05/05 05:40:32;;;;;;;13.27;7.55;;;;;;;14.51;85.34;99075.09;4492088;31;20085;-74
2022/05/05 05:42:59;;;;;;;14.68;7.43;;;;;;;14.63;84.77;99072.25;4482027;31;20454;-73
2022/05/05 05:45:26;;;;;;;10.88;7.50;;;;;;;14.60;83.63;99072.53;4478093;31;20127;-73
2022/05/05 05:47:53;;;;;;;11.50;7.50;;;;;;;14.62;83.59;99076.66;4483474;31;20448;-73
2022/05/05 05:50:21;;;;;;;9.95;6.72;;;;;;;14.66;83.49;99078.03;4482270;31;20111;-73
2022/05/05 05:52:48;;;;;;;10.60;7.95;;;;;;;14.75;82.66;99076.28;4479276;32;20093;-73
2022/05/05 05:55:16;;;;;;;11.68;8.38;;;;;;;14.87;81.65;99069.75;4477281;32;20116;-73
2022/05/05 05:57:43;;;;;;;14.10;8.23;;;;;;;14.76;82.77;99087.63;4470072;32;20123;-73
2022/05/05 06:00:10;;;;;;;17.40;8.45;;;;;;;14.82;82.18;99081.72;4476812;32;20836;-73
2022/05/05 06:05:23;;;;;;;14.82;8.75;;;;;;;15.08;82.70;99085.16;4477917;31;20124;-73
2022/05/05 06:07:50;;;;;;;15.80;8.23;;;;;;;15.17;82.20;99086.03;4480636;31;20088;-74
2022/05/05 06:10:19;;;;;;;12.40;8.50;;;;;;;15.25;81.34;99082.59;4476569;32;20088;-73
2022/05/05 06:12:47;;;;;;;14.10;9.15;;;;;;;15.32;80.90;99082.78;4483712;31;20180;-74
2022/05/05 06:15:14;;;;;;;16.37;8.50;;;;;;;15.40;80.16;99083.62;4471968;31;20112;-74
2022/05/05 06:17:42;;;;;;;14.93;8.68;;;;;;;15.47;79.89;99083.81;4481000;32;20123;-73
2022/05/05 06:20:10;;;;;;;13.73;7.68;;;;;;;15.50;79.75;99091.41;4483660;31;20501;-73
2022/05/05 06:22:40;;;;;;;19.10;7.18;;;;;;;15.54;79.65;99087.47;4482170;31;20080;-73
2022/05/05 06:25:08;;;;;;;16.70;7.55;;;;;;;15.47;78.65;99091.72;4480547;31;20127;-73
2022/05/05 06:27:35;;;;;;;13.50;7.65;;;;;;;15.61;79.46;99098.22;4481728;32;20148;-73
2022/05/05 06:30:04;;;;;;;14.07;7.37;;;;;;;15.65;76.21;99094.25;4485191;32;20104;-73
2022/05/05 06:32:31;;;;;;;11.98;7.07;;;;;;;15.49;76.45;99094.22;4479442;31;20123;-74
2022/05/05 06:34:58;;;;;;;11.63;7.32;;;;;;;15.32;77.54;99094.19;4476029;32;20123;-73
2022/05/05 06:37:25;;;;;;;10.52;6.60;;;;;;;15.46;77.23;99102.44;4475499;31;20135;-73
2022/05/05 06:39:53;;;;;;;14.98;6.60;;;;;;;15.53;77.14;99100.84;4480417;32;20092;-73
2022/05/05 06:42:20;;;;;;;10.15;6.65;;;;;;;15.73;75.96;99115.41;4478155;32;20145;-72
2022/05/05 06:44:47;;;;;;;12.37;7.05;;;;;;;15.87;74.75;99110.53;4480595;32;20097;-73
2022/05/05 06:47:14;;;;;;;16.45;7.03;;;;;;;15.80;74.32;99107.69;4479824;31;20169;-73
2022/05/05 06:49:42;;;;;;;12.32;6.18;;;;;;;15.76;75.83;99109.81;4482376;32;20104;-74
2022/05/05 06:52:09;;;;;;;11.80;6.35;;;;;;;15.78;74.85;99104.41;4484382;31;20822;-73
2022/05/05 06:54:56;;;;;;;9.85;6.47;;;;;;;15.57;74.75;99104.81;4482768;31;20144;-73
2022/05/05 06:57:24;;;;;;;11.12;6.60;;;;;;;15.67;75.04;99104.66;4483848;32;20446;-74
2022/05/05 06:59:51;;;;;;;8.35;6.18;;;;;;;15.98;72.71;99104.91;4480020;32;20647;-74
2022/05/05 07:02:18;;;;;;;8.32;6.55;;;;;;;16.09;72.49;99107.25;4480066;31;20088;-73
2022/05/05 07:07:32;;;;;;;10.10;5.75;;;;;;;16.37;71.05;99108.75;4479531;31;20104;-73
2022/05/05 07:13:04;;;;;;;8.23;5.35;;;;;;;16.61;68.87;99111.34;4476261;32;20176;-74
2022/05/05 07:15:31;;;;;;;11.70;6.22;;;;;;;16.59;68.85;99112.50;4453439;32;20172;-74
2022/05/05 07:17:59;;;;;;;9.68;6.18;;;;;;;16.67;68.61;99117.81;4466541;32;20480;-74
2022/05/05 07:20:26;;;;;;;14.25;6.37;;;;;;;16.68;68.74;99116.78;4467301;32;20140;-74
2022/05/05 07:22:56;;;;;;;9.57;6.43;;;;;;;16.76;68.75;99124.72;4466415;32;20119;-73
2022/05/05 07:25:25;;;;;;;9.93;5.35;;;;;;;16.80;68.96;99128.66;4459491;32;20757;-74
2022/05/05 07:27:53;;;;;;;12.55;7.00;;;;;;;16.76;68.00;99113.28;4464599;32;20108;-76
2022/05/05 07:30:20;;;;;;;8.57;5.28;;;;;;;16.92;68.92;99118.59;4460595;32;20112;-73
2022/05/05 07:32:47;;;;;;;10.75;5.00;;;;;;;17.17;68.28;99114.06;4455199;32;20105;-73
2022/05/05 07:35:15;;;;;;;10.20;5.47;;;;;;;17.31;67.36;99122.28;4463327;32;20137;-73
2022/05/05 07:37:42;;;;;;;8.02;4.97;;;;;;;17.27;66.32;99120.97;4452214;32;20088;-72
2022/05/05 07:40:10;;;;;;;12.15;4.45;;;;;;;17.46;64.80;99128.50;4459801;32;20139;-73
2022/05/05 07:42:37;;;;;;;9.38;5.18;;;;;;;17.51;65.05;99135.94;4457747;32;20101;-73
2022/05/05 07:45:05;;;;;;;6.62;4.70;;;;;;;17.52;65.55;99132.28;4465226;32;20541;-73
2022/05/05 07:47:36;;;;;;;7.05;5.03;;;;;;;17.61;66.31;99123.31;4455924;32;20549;-73
2022/05/05 07:50:05;;;;;;;9.07;5.30;;;;;;;17.57;67.15;99119.34;4478298;32;20096;-72
2022/05/05 07:52:32;;;;;;;8.05;4.25;;;;;;;17.55;65.24;99131.94;4480707;32;20096;-72
2022/05/05 07:54:59;;;;;;;7.18;4.78;;;;;;;17.66;64.68;99141.31;4478984;32;20125;-73
2022/05/05 07:57:27;;;;;;;9.38;4.93;;;;;;;17.97;64.74;99146.66;4480991;31;20207;-74
2022/05/05 07:59:54;;;;;;;6.95;4.70;;;;;;;18.13;62.77;99148.34;4484667;31;20480;-72
2022/05/05 08:02:21;;;;;;;8.77;4.12;;;;;;;18.09;63.66;99141.75;4484675;31;20119;-72
2022/05/05 08:04:48;;;;;;;5.72;4.20;;;;;;;18.17;62.41;99146.16;4480107;31;20585;-72
2022/05/05 08:07:16;;;;;;;6.55;4.35;;;;;;;18.20;62.14;99144.00;4478052;31;20172;-72
2022/05/05 08:09:43;;;;;;;9.45;3.97;;;;;;;18.21;60.79;99145.66;4481282;31;20156;-72
2022/05/05 08:12:27;;;;;;;;;;;;;;;18.20;61.20;99159.09;4478415;31;20161;-72
2022/05/05 08:14:55;;;;;;;6.30;4.30;;;;;;;18.26;61.78;99153.06;4480993;32;19980;-72
2022/05/05 08:17:23;;;;;;;11.43;4.70;;;;;;;18.09;60.18;99152.34;4479850;31;20124;-72
2022/05/05 08:19:50;;;;;;;7.05;4.20;;;;;;;17.93;60.98;99152.47;4483832;32;20469;-72
2022/05/05 08:22:18;;;;;;;7.72;3.75;;;;;;;18.07;62.61;99149.06;4479494;31;20100;-73
2022/05/05 08:30:17;;;;;;;7.57;3.67;;;;;;;18.24;60.34;99160.38;4474918;31;20129;-72
2022/05/05 08:32:45;;;;;;;9.25;3.85;;;;;;;18.26;59.67;99159.19;4479814;31;20111;-72
2022/05/05 08:35:12;;;;;;;8.70;4.30;;;;;;;18.32;59.74;99156.81;4482395;31;20135;-72
2022/05/05 08:37:39;;;;;;;8.38;4.40;;;;;;;18.35;60.40;99156.47;4474700;32;20097;-72
2022/05/05 08:40:07;;;;;;;9.65;4.32;;;;;;;18.41;60.73;99161.91;4477728;32;20095;-72
2022/05/05 08:42:35;;;;;;;4.97;4.20;;;;;;;18.48;59.99;99164.66;4480533;31;20112;-72
2022/05/05 08:45:02;;;;;;;6.25;4.80;;;;;;;18.40;59.15;99170.03;4479815;31;20149;-72
2022/05/05 08:47:32;;;;;;;5.68;4.53;;;;;;;18.42;62.44;99160.88;4481472;31;20122;-72
2022/05/05 08:50:00;;;;;;;5.85;4.10;;;;;;;18.58;59.75;99167.88;4478194;31;20114;-71
2022/05/05 08:52:37;;;;;;;6.65;4.03;;;;;;;18.76;60.51;99170.22;4478168;31;20096;-72
2022/05/05 08:55:05;;;;;;;10.32;4.55;;;;;;;19.02;58.35;99157.56;4479550;32;20119;-72
2022/05/05 08:57:32;;;;;;;7.62;4.80;;;;;;;19.03;59.88;99170.66;4482129;31;20096;-72
2022/05/05 08:59:59;;;;;;;7.05;3.97;;;;;;;19.02;62.45;99168.19;4469292;31;20470;-72
2022/05/05 09:02:27;;;;;;;5.75;4.25;;;;;;;19.26;60.46;99165.25;4479640;32;20138;-72
2022/05/05 09:04:54;;;;;;;6.68;5.30;;;;;;;19.15;58.42;99171.00;4477633;32;21189;-72
2022/05/05 09:07:22;;;;;;;9.48;4.80;;;;;;;18.75;58.99;99173.06;4477185;32;20093;-72
2022/05/05 09:09:50;;;;;;;16.40;4.40;;;;;;;18.82;58.13;99171.34;4478178;31;20173;-72
2022/05/05 09:12:19;;;;;;;5.93;4.30;;;;;;;19.22;59.89;99174.59;4471099;32;20157;-72
2022/05/05 09:14:53;;;;;;;5.32;4.40;;;;;;;19.30;58.00;99177.19;4478725;32;20126;-72
2022/05/05 09:17:23;;;;;;;5.75;4.37;;;;;;;19.59;56.97;99174.66;4476354;32;20109;-72
2022/05/05 09:19:55;;;;;;;6.37;4.62;;;;;;;19.67;57.25;99178.03;4478007;32;20100;-72
2022/05/05 09:22:25;;;;;;;7.65;3.90;;;;;;;19.59;56.71;99180.81;4476747;32;20108;-72
2022/05/05 09:24:58;;;;;;;6.62;4.20;;;;;;;19.76;56.77;99181.44;4472502;31;20097;-72
2022/05/05 09:27:32;;;;;;;4.43;4.00;;;;;;;19.63;55.71;99168.78;4484057;31;20105;-73
2022/05/05 09:30:08;;;;;;;7.70;4.03;;;;;;;19.58;55.61;99179.16;4480260;31;20148;-73
2022/05/05 09:32:46;;;;;;;5.93;3.80;;;;;;;19.77;61.46;99176.94;4477247;32;20100;-73
2022/05/05 09:35:17;;;;;;;4.53;3.55;;;;;;;20.02;56.42;99169.47;4466516;32;20150;-72
2022/05/05 09:37:49;;;;;;;9.48;3.92;;;;;;;20.10;55.32;99166.69;4466420;32;20092;-73
2022/05/05 09:40:18;;;;;;;4.30;3.62;;;;;;;20.16;56.29;99181.88;4479075;32;20092;-73
2022/05/05 09:42:49;;;;;;;5.03;3.45;;;;;;;20.20;51.66;99177.03;4484897;32;20095;-73
2022/05/05 09:45:35;;;;;;;6.12;3.70;;;;;;;20.21;53.61;99168.00;4479046;31;20093;-73
2022/05/05 09:48:03;;;;;;;8.50;3.40;;;;;;;20.34;53.37;99177.97;4474955;32;20721;-72
2022/05/05 09:50:33;;;;;;;6.50;3.20;;;;;;;20.22;51.84;99167.00;4481840;31;20448;-72
2022/05/05 09:58:37;;;;;;;4.28;3.10;;;;;;;20.13;53.50;99170.81;4485549;31;20081;-73
2022/05/05 10:01:13;;;;;;;4.90;3.03;;;;;;;20.58;51.39;99174.09;4483369;31;20092;-72
2022/05/05 10:06:42;;;;;;;7.47;3.08;;;;;;;20.93;50.68;99182.16;4472746;32;20105;-72
2022/05/05 10:09:14;;;;;;;7.35;3.10;;;;;;;21.03;52.88;99177.34;4478044;31;20123;-72
2022/05/05 10:11:41;;;;;;;3.20;2.90;;;;;;;21.15;51.44;99174.09;4482403;32;20101;-73
2022/05/05 10:14:11;;;;;;;5.47;2.70;;;;;;;21.36;52.98;99176.72;4481796;31;20734;-73
2022/05/05 10:16:40;;;;;;;5.43;3.10;;;;;;;21.71;55.39;99179.34;4472632;32;20444;-73
2022/05/05 10:19:08;;;;;;;6.00;3.37;;;;;;;21.97;51.36;99175.12;4482000;32;20236;-72
2022/05/05 10:21:50;;;;;;;4.57;3.30;;;;;;;21.74;50.58;99172.78;4482789;31;20126;-73
2022/05/05 10:24:30;;;;;;;6.22;3.45;;;;;;;21.75;46.17;99180.56;4482238;32;20084;-72
2022/05/05 10:27:00;;;;;;;10.48;2.95;;;;;;;21.62;51.22;99183.22;4484815;32;20096;-73
2022/05/05 10:29:33;;;;;;;7.95;2.92;;;;;;;21.53;47.65;99165.72;4475976;32;20113;-73
2022/05/05 10:32:09;;;;;;;4.43;3.92;;;;;;;21.64;53.51;99167.84;4482207;32;20084;-73
2022/05/05 10:34:38;;;;;;;4.47;3.42;;;;;;;21.33;49.89;99170.94;4478899;32;20081;-73
2022/05/05 10:37:14;;;;;;;10.05;3.60;;;;;;;21.50;51.75;99168.78;4469953;32;20096;-73
2022/05/05 10:40:09;;;;;;;4.60;2.85;;;;;;;21.23;47.87;99176.63;4473753;32;20149;-73
2022/05/05 10:42:41;;;;;;;7.65;3.22;;;;;;;21.36;45.45;99170.53;4473957;32;20093;-73
2022/05/05 10:45:15;;;;;;;5.28;2.92;;;;;;;21.09;50.52;99176.53;4470980;32;20753;-71
2022/05/05 10:50:33;;;;;;;8.30;3.42;;;;;;;21.66;51.57;99170.31;4479199;32;20111;-73
2022/05/05 10:53:02;;;;;;;8.57;4.22;;;;;;;21.69;50.64;99168.03;4475565;32;20122;-74
2022/05/05 10:55:43;;;;;;;3.62;3.08;;;;;;;21.84;49.49;99173.22;4476600;32;20080;-75
2022/05/05 10:59:03;;;;;;;3.87;2.78;;;;;;;21.91;48.96;99170.59;4482134;32;20124;-74
2022/05/05 11:01:53;;;;;;;4.68;3.10;;;;;;;22.21;48.14;99162.22;4475619;32;20118;-73
2022/05/05 11:04:24;;;;;;;5.80;3.00;;;;;;;22.25;47.94;99168.81;4476871;31;20149;-74
2022/05/05 11:07:20;;;;;;;4.60;2.87;;;;;;;22.33;47.17;99166.81;4495070;31;20192;-73
2022/05/05 11:09:47;;;;;;;4.28;2.55;;;;;;;22.65;49.30;99171.53;4481714;31;20597;-74
2022/05/05 11:12:19;;;;;;;5.97;3.28;;;;;;;22.97;49.25;99169.06;4483303;31;20101;-74
2022/05/05 11:23:47;;;;;;;7.78;3.65;;;;;;;22.24;46.82;99162.66;4482015;32;20092;-74
2022/05/05 11:26:19;;;;;;;5.25;2.80;;;;;;;22.25;50.90;99152.78;4482213;31;20104;-74
2022/05/05 11:28:47;;;;;;;7.03;2.67;;;;;;;22.26;49.51;99162.47;4482941;32;20099;-74
2022/05/05 11:31:21;;;;;;;7.07;2.80;;;;;;;22.57;46.43;99155.72;4466807;31;20134;-73
2022/05/05 11:33:57;;;;;;;4.35;2.60;;;;;;;22.65;48.81;99158.16;4480319;32;20100;-74
2022/05/05 11:36:26;;;;;;;9.10;2.97;;;;;;;22.76;50.01;99159.41;4482602;32;20088;-74
2022/05/05 11:38:54;;;;;;;6.40;3.90;;;;;;;23.11;45.93;99154.66;4478743;32;20088;-74
2022/05/05 11:41:25;;;;;;;7.78;3.22;;;;;;;22.83;42.54;99146.84;4479240;32;20144;-74
2022/05/05 11:46:38;;;;;;;5.72;2.85;;;;;;;22.78;48.15;99147.47;4479241;31;20100;-74
2022/05/05 11:49:08;;;;;;;6.53;3.08;;;;;;;23.03;47.41;99149.50;4483399;31;20092;-74
2022/05/05 11:51:36;;;;;;;4.07;2.75;;;;;;;23.29;44.66;99148.66;4480502;31;20127;-74
2022/05/05 11:54:05;;;;;;;3.25;2.50;;;;;;;23.25;43.55;99142.06;4480587;32;20149;-74
2022/05/05 11:56:34;;;;;;;5.85;2.83;;;;;;;23.50;43.11;99134.16;4476719;32;20162;-74
2022/05/05 12:02:18;;;;;;;4.40;2.95;;;;;;;23.56;46.48;99132.50;4464470;32;20100;-74
2022/05/05 12:04:49;;;;;;;3.22;2.87;;;;;;;23.35;44.50;99131.75;4478750;32;20126;-74
2022/05/05 12:07:22;;;;;;;7.45;3.12;;;;;;;23.34;46.96;99123.94;4480032;31;20096;-74
2022/05/05 12:09:51;;;;;;;4.25;2.87;;;;;;;23.31;44.17;99135.06;4480765;31;20402;-74
2022/05/05 12:12:22;;;;;;;3.28;2.97;;;;;;;23.27;46.93;99126.66;4483626;32;20084;-74
2022/05/05 12:14:54;;;;;;;5.85;3.20;;;;;;;23.18;44.20;99123.41;4483758;32;20101;-74
2022/05/05 12:17:26;;;;;;;6.97;3.03;;;;;;;23.20;48.21;99126.66;4483424;32;20093;-74
2022/05/05 12:19:56;;;;;;;4.72;2.80;;;;;;;23.31;47.70;99122.50;4482146;31;20596;-74
2022/05/05 12:22:28;;;;;;;7.82;3.12;;;;;;;23.78;42.31;99119.63;4483547;32;20136;-74
2022/05/05 12:25:15;;;;;;;2.95;2.60;;;;;;;23.91;45.51;99108.87;4486371;31;20088;-74
2022/05/05 12:27:57;;;;;;;10.02;2.70;;;;;;;24.07;45.32;99120.94;4467458;32;20092;-74
2022/05/05 12:30:43;;;;;;;4.18;2.42;;;;;;;24.55;46.01;99122.19;4471816;32;20084;-74